createdAt,value
2023-11-02T00:01:56.846Z,98829.69
2023-11-02T00:04:25.668Z,98828.78
2023-11-02T00:06:56.747Z,98824.50
2023-11-02T00:09:41.064Z,98816.41
2023-11-02T00:12:12.443Z,98813.25
2023-11-02T00:14:46.948Z,98801.03
2023-11-02T00:17:48.419Z,98792.81
2023-11-02T00:20:37.464Z,98774.09
2023-11-02T00:23:06.997Z,98767.94
2023-11-02T00:25:55.323Z,98753.59
2023-11-02T00:28:25.511Z,98750.50
2023-11-02T00:30:54.406Z,98754.25
2023-11-02T00:33:28.519Z,98747.84
2023-11-02T00:35:56.997Z,98737.84
2023-11-02T00:38:27.869Z,98728.06
2023-11-02T00:40:57.248Z,98729.91
2023-11-02T00:43:27.180Z,98724.78
2023-11-02T00:45:56.265Z,98718.09
2023-11-02T00:48:29.008Z,98707.16
2023-11-02T00:51:25.982Z,98712.19
2023-11-02T00:53:57.299Z,98711.00
2023-11-02T00:56:32.849Z,98707.03
2023-11-02T00:59:01.865Z,98702.19
2023-11-02T01:01:31.288Z,98700.00
2023-11-02T01:04:04.943Z,98703.19
2023-11-02T01:06:37.997Z,98704.16
2023-11-02T01:09:39.073Z,98691.44
2023-11-02T01:12:07.657Z,98684.69
2023-11-02T01:14:48.688Z,98674.78
2023-11-02T01:17:33.442Z,98668.03
2023-11-02T01:20:08.476Z,98662.94
2023-11-02T01:22:56.451Z,98645.38
2023-11-02T01:25:28.823Z,98637.88
2023-11-02T01:28:02.333Z,98623.69
2023-11-02T01:31:06.384Z,98634.56
2023-11-02T01:34:02.370Z,98613.91
2023-11-02T01:36:43.983Z,98601.63
2023-11-02T01:39:49.419Z,98594.34
2023-11-02T01:42:32.912Z,98582.44
2023-11-02T01:45:07.565Z,98572.03
2023-11-02T01:47:50.553Z,98581.13
2023-11-02T01:50:33.037Z,98569.81
2023-11-02T01:53:25.784Z,98562.72
2023-11-02T01:56:19.408Z,98548.97
2023-11-02T01:59:01.889Z,98544.66
2023-11-02T02:01:36.283Z,98533.53
2023-11-02T02:04:17.209Z,98528.09
2023-11-02T02:06:52.171Z,98506.31
2023-11-02T02:09:33.888Z,98487.91
2023-11-02T02:12:09.280Z,98489.16
2023-11-02T02:14:55.680Z,98483.41
2023-11-02T02:17:34.989Z,98480.34
2023-11-02T02:20:09.592Z,98468.69
2023-11-02T02:22:46.890Z,98454.94
2023-11-02T02:25:25.311Z,98450.13
2023-11-02T02:28:19.494Z,98439.78
2023-11-02T02:31:20.909Z,98425.19
2023-11-02T02:34:30.591Z,98424.66
2023-11-02T02:37:09.192Z,98419.66
2023-11-02T02:39:41.485Z,98410.47
2023-11-02T02:42:13.324Z,98393.19
2023-11-02T02:44:43.476Z,98391.56
2023-11-02T02:47:13.235Z,98363.72
2023-11-02T02:49:49.513Z,98366.91
2023-11-02T02:52:23.554Z,98356.91
2023-11-02T02:54:55.404Z,98355.00
2023-11-02T02:57:29.941Z,98365.44
2023-11-02T03:00:02.346Z,98360.44
2023-11-02T03:02:34.064Z,98373.53
2023-11-02T03:05:03.957Z,98367.72
2023-11-02T03:07:34.057Z,98363.72
2023-11-02T03:10:05.192Z,98350.59
2023-11-02T03:12:35.644Z,98345.03
2023-11-02T03:15:08.958Z,98348.34
2023-11-02T03:17:48.003Z,98354.16
2023-11-02T03:20:17.529Z,98360.97
2023-11-02T03:22:49.677Z,98345.31
2023-11-02T03:25:26.005Z,98347.97
2023-11-02T03:28:09.100Z,98340.88
2023-11-02T03:30:53.085Z,98334.13
2023-11-02T03:33:29.510Z,98325.78
2023-11-02T03:36:04.708Z,98315.56
2023-11-02T03:38:53.446Z,98308.31
2023-11-02T03:41:28.333Z,98314.19
2023-11-02T03:44:04.513Z,98302.84
2023-11-02T03:46:47.214Z,98298.56
2023-11-02T03:49:26.489Z,98297.38
2023-11-02T03:52:04.590Z,98286.47
2023-11-02T03:54:53.875Z,98275.97
2023-11-02T03:57:30.752Z,98273.16
2023-11-02T04:00:10.476Z,98268.72
2023-11-02T04:02:47.167Z,98254.16
2023-11-02T04:05:21.276Z,98251.72
2023-11-02T04:08:01.002Z,98249.41
2023-11-02T04:10:33.140Z,98242.97
2023-11-02T04:13:18.722Z,98232.69
2023-11-02T04:15:46.782Z,98238.19
2023-11-02T04:18:15.196Z,98236.41
2023-11-02T04:20:45.902Z,98246.69
2023-11-02T04:23:14.590Z,98250.41
2023-11-02T04:25:43.912Z,98239.22
2023-11-02T04:28:12.006Z,98220.19
2023-11-02T04:30:41.774Z,98223.09
2023-11-02T04:33:09.931Z,98213.25
2023-11-02T04:35:38.899Z,98214.91
2023-11-02T04:38:10.810Z,98217.81
2023-11-02T04:40:41.271Z,98211.28
2023-11-02T04:43:11.589Z,98220.63
2023-11-02T04:45:39.684Z,98211.53
2023-11-02T04:48:09.470Z,98199.06
2023-11-02T04:50:40.513Z,98188.94
2023-11-02T04:53:11.905Z,98183.13
2023-11-02T04:55:42.324Z,98169.38
2023-11-02T04:58:13.844Z,98161.50
2023-11-02T05:00:43.317Z,98139.63
2023-11-02T05:03:16.783Z,98148.41
2023-11-02T05:05:46.114Z,98124.50
2023-11-02T05:08:14.983Z,98128.59
2023-11-02T05:10:43.616Z,98117.00
2023-11-02T05:13:14.036Z,98113.81
2023-11-02T05:15:55.520Z,98122.78
2023-11-02T05:18:25.827Z,98120.66
2023-11-02T05:21:00.980Z,98115.34
2023-11-02T05:23:29.381Z,98108.06
2023-11-02T05:25:57.719Z,98123.81
2023-11-02T05:28:28.020Z,98121.16
2023-11-02T05:30:56.642Z,98098.25
2023-11-02T05:33:26.887Z,98096.50
2023-11-02T05:35:54.910Z,98090.34
2023-11-02T05:38:23.184Z,98087.69
2023-11-02T05:40:51.148Z,98082.38
2023-11-02T05:43:19.053Z,98072.88
2023-11-02T05:45:49.720Z,98072.75
2023-11-02T05:48:18.605Z,98067.47
2023-11-02T05:50:46.632Z,98062.91
2023-11-02T05:53:14.539Z,98064.00
2023-11-02T05:55:43.284Z,98057.63
2023-11-02T05:58:11.847Z,98051.44
2023-11-02T06:00:40.526Z,98058.56
2023-11-02T06:03:12.239Z,98050.84
2023-11-02T06:05:40.080Z,98046.91
2023-11-02T06:08:08.172Z,98046.47
2023-11-02T06:10:37.428Z,98036.63
2023-11-02T06:13:06.240Z,98027.28
2023-11-02T06:15:35.223Z,98016.38
2023-11-02T06:18:06.426Z,98019.59
2023-11-02T06:20:35.742Z,98019.50
2023-11-02T06:23:04.945Z,98029.75
2023-11-02T06:25:33.027Z,98029.59
2023-11-02T06:28:03.011Z,98036.31
2023-11-02T06:30:32.675Z,98034.69
2023-11-02T06:33:07.523Z,98037.34
2023-11-02T06:35:38.119Z,98041.25
2023-11-02T06:38:09.210Z,98026.16
2023-11-02T06:40:37.302Z,98013.72
2023-11-02T06:43:07.978Z,98015.78
2023-11-02T06:45:36.498Z,98027.44
2023-11-02T06:48:04.918Z,98017.19
2023-11-02T06:50:34.381Z,98018.16
2023-11-02T06:53:04.201Z,97993.53
2023-11-02T06:55:32.148Z,98007.09
2023-11-02T06:58:00.126Z,97992.91
2023-11-02T07:00:30.525Z,98003.63
2023-11-02T07:02:58.772Z,97993.72
2023-11-02T07:05:29.757Z,97992.53
2023-11-02T07:07:57.956Z,97984.91
2023-11-02T07:10:28.020Z,97973.34
2023-11-02T07:12:55.856Z,97964.19
2023-11-02T07:15:24.892Z,97970.88
2023-11-02T07:17:53.335Z,97954.53
2023-11-02T07:20:21.874Z,97945.09
2023-11-02T07:22:50.131Z,97946.47
2023-11-02T07:25:18.713Z,97939.94
2023-11-02T07:27:48.329Z,97943.84
2023-11-02T07:30:16.836Z,97929.22
2023-11-02T07:32:45.136Z,97928.78
2023-11-02T07:35:13.094Z,97936.44
2023-11-02T07:37:43.745Z,97914.56
2023-11-02T07:40:13.125Z,97921.25
2023-11-02T07:42:42.639Z,97879.06
2023-11-02T07:45:12.990Z,97854.13
2023-11-02T07:47:42.540Z,97779.28
2023-11-02T07:50:11.478Z,97716.84
2023-11-02T07:52:41.484Z,97685.59
2023-11-02T07:55:11.361Z,97668.59
2023-11-02T07:57:41.628Z,97629.94
2023-11-02T08:00:12.340Z,97617.72
2023-11-02T08:02:44.282Z,97594.00
2023-11-02T08:05:12.680Z,97617.81
2023-11-02T08:07:40.609Z,97610.66
2023-11-02T08:10:10.299Z,97664.63
2023-11-02T08:12:38.506Z,97729.84
2023-11-02T08:15:07.260Z,97765.91
2023-11-02T08:17:39.911Z,97757.22
2023-11-02T08:20:12.139Z,97766.06
2023-11-02T08:22:40.067Z,97801.34
2023-11-02T08:25:10.737Z,97769.72
2023-11-02T08:27:40.949Z,97745.56
2023-11-02T08:30:12.664Z,97725.47
2023-11-02T08:32:40.919Z,97665.25
2023-11-02T08:35:12.404Z,97656.97
2023-11-02T08:37:40.302Z,97689.84
2023-11-02T08:40:12.474Z,97675.81
2023-11-02T08:42:41.647Z,97673.34
2023-11-02T08:45:10.933Z,97674.38
2023-11-02T08:47:44.273Z,97656.38
2023-11-02T08:50:16.660Z,97650.88
2023-11-02T08:52:44.655Z,97638.97
2023-11-02T08:55:13.795Z,97621.16
2023-11-02T08:57:43.495Z,97643.69
2023-11-02T09:00:17.659Z,97627.25
2023-11-02T09:02:47.030Z,97632.53
2023-11-02T09:05:16.318Z,97639.22
2023-11-02T09:07:44.509Z,97632.53
2023-11-02T09:10:12.804Z,97610.19
2023-11-02T09:12:41.445Z,97629.31
2023-11-02T09:15:13.327Z,97630.50
2023-11-02T09:17:41.711Z,97636.84
2023-11-02T09:20:13.802Z,97648.00
2023-11-02T09:22:46.130Z,97640.28
2023-11-02T09:25:14.386Z,97641.09
2023-11-02T09:27:48.848Z,97650.81
2023-11-02T09:30:17.744Z,97653.47
2023-11-02T09:32:48.056Z,97655.50
2023-11-02T09:35:18.695Z,97660.81
2023-11-02T09:37:51.016Z,97662.00
2023-11-02T09:40:19.436Z,97645.38
2023-11-02T09:42:47.518Z,97647.63
2023-11-02T09:45:16.220Z,97644.34
2023-11-02T09:47:44.235Z,97646.38
2023-11-02T09:50:12.429Z,97647.00
2023-11-02T09:52:43.509Z,97648.00
2023-11-02T09:55:15.155Z,97652.06
2023-11-02T09:57:44.073Z,97634.19
2023-11-02T10:00:18.529Z,97650.66
2023-11-02T10:02:48.863Z,97656.53
2023-11-02T10:05:17.087Z,97654.50
2023-11-02T10:07:46.033Z,97650.44
2023-11-02T10:10:16.333Z,97640.28
2023-11-02T10:12:44.330Z,97653.69
2023-11-02T10:15:17.651Z,97638.44
2023-11-02T10:17:46.998Z,97631.72
2023-11-02T10:20:16.971Z,97622.19
2023-11-02T10:22:46.476Z,97644.72
2023-11-02T10:25:16.259Z,97647.22
2023-11-02T10:27:45.163Z,97643.31
2023-11-02T10:30:15.221Z,97622.94
2023-11-02T10:32:43.585Z,97621.94
2023-11-02T10:35:11.771Z,97617.44
2023-11-02T10:37:43.043Z,97612.97
2023-11-02T10:40:11.764Z,97618.25
2023-11-02T10:42:42.734Z,97633.91
2023-11-02T10:45:15.131Z,97649.53
2023-11-02T10:47:43.451Z,97645.63
2023-11-02T10:50:14.996Z,97639.88
2023-11-02T10:52:47.687Z,97645.94
2023-11-02T10:55:21.789Z,97635.53
2023-11-02T10:57:51.924Z,97624.78
2023-11-02T11:00:23.853Z,97602.56
2023-11-02T11:02:52.849Z,97596.03
2023-11-02T11:05:25.198Z,97620.13
2023-11-02T11:07:57.558Z,97608.63
2023-11-02T11:10:25.946Z,97588.69
2023-11-02T11:12:56.762Z,97555.94
2023-11-02T11:15:26.559Z,97597.50
2023-11-02T11:17:57.005Z,97607.59
2023-11-02T11:20:29.680Z,97607.41
2023-11-02T11:22:58.712Z,97628.41
2023-11-02T11:25:27.616Z,97622.31
2023-11-02T11:27:59.576Z,97648.56
2023-11-02T11:30:38.795Z,97648.97
2023-11-02T11:33:42.625Z,97670.75
2023-11-02T11:36:21.002Z,97688.25
2023-11-02T11:38:49.383Z,97682.50
2023-11-02T11:41:42.610Z,97692.13
2023-11-02T11:44:24.265Z,97671.13
2023-11-02T11:46:57.313Z,97673.34
2023-11-02T11:49:50.300Z,97666.03
2023-11-02T11:52:22.871Z,97651.56
2023-11-02T11:54:51.292Z,97638.78
2023-11-02T11:57:58.236Z,97648.53
2023-11-02T12:00:29.014Z,97649.81
2023-11-02T12:02:59.503Z,97640.63
2023-11-02T12:05:55.832Z,97632.06
2023-11-02T12:08:24.813Z,97623.94
2023-11-02T12:10:55.457Z,97618.84
2023-11-02T12:13:24.666Z,97625.38
2023-11-02T12:15:59.085Z,97622.25
2023-11-02T12:18:29.926Z,97609.47
2023-11-02T12:20:59.449Z,97613.53
2023-11-02T12:23:35.058Z,97614.31
2023-11-02T12:26:04.501Z,97622.88
2023-11-02T12:28:49.315Z,97615.56
2023-11-02T12:31:32.206Z,97610.44
2023-11-02T12:34:03.141Z,97608.19
2023-11-02T12:36:32.238Z,97589.66
2023-11-02T12:39:02.386Z,97571.44
2023-11-02T12:41:32.786Z,97592.13
2023-11-02T12:44:04.115Z,97588.28
2023-11-02T12:46:35.489Z,97589.66
2023-11-02T12:49:17.002Z,97585.78
2023-11-02T12:51:45.820Z,97578.88
2023-11-02T12:54:18.525Z,97572.34
2023-11-02T12:56:47.722Z,97565.91
2023-11-02T12:59:16.031Z,97559.84
2023-11-02T13:01:52.916Z,97537.81
2023-11-02T13:04:22.253Z,97511.41
2023-11-02T13:06:50.171Z,97492.25
2023-11-02T13:09:23.497Z,97491.03
2023-11-02T13:11:55.086Z,97480.13
2023-11-02T13:14:26.284Z,97490.66
2023-11-02T13:16:56.898Z,97507.56
2023-11-02T13:19:26.385Z,97514.06
2023-11-02T13:21:54.799Z,97534.44
2023-11-02T13:24:25.180Z,97534.59
2023-11-02T13:26:53.197Z,97555.16
2023-11-02T13:29:21.876Z,97559.25
2023-11-02T13:31:51.194Z,97573.06
2023-11-02T13:34:21.400Z,97570.34
2023-11-02T13:36:50.403Z,97561.63
2023-11-02T13:39:18.359Z,97551.09
2023-11-02T13:41:46.593Z,97547.88
2023-11-02T13:44:16.891Z,97549.50
2023-11-02T13:46:44.865Z,97538.28
2023-11-02T13:49:13.955Z,97529.38
2023-11-02T13:51:43.426Z,97530.81
2023-11-02T13:54:12.174Z,97534.06
2023-11-02T13:56:40.293Z,97523.63
2023-11-02T13:59:13.422Z,97521.69
2023-11-02T14:01:42.227Z,97533.28
2023-11-02T14:04:10.586Z,97533.69
2023-11-02T14:06:39.088Z,97535.09
2023-11-02T14:09:10.910Z,97529.38
2023-11-02T14:11:38.783Z,97546.84
2023-11-02T14:14:07.819Z,97540.38
2023-11-02T14:16:38.897Z,97532.66
2023-11-02T14:19:09.699Z,97535.09
2023-11-02T14:21:40.176Z,97533.28
2023-11-02T14:24:08.847Z,97531.06
2023-11-02T14:26:38.405Z,97527.00
2023-11-02T14:29:06.926Z,97523.69
2023-11-02T14:31:36.842Z,97511.28
2023-11-02T14:34:06.985Z,97510.66
2023-11-02T14:36:36.034Z,97499.94
2023-11-02T14:39:05.064Z,97506.19
2023-11-02T14:41:33.115Z,97501.19
2023-11-02T14:44:02.386Z,97524.91
2023-11-02T14:46:30.396Z,97504.53
2023-11-02T14:49:00.786Z,97498.50
2023-11-02T14:51:31.013Z,97508.19
2023-11-02T14:54:01.120Z,97507.94
2023-11-02T14:56:33.001Z,97496.75
2023-11-02T14:59:02.396Z,97499.69
2023-11-02T15:01:31.149Z,97506.22
2023-11-02T15:04:02.376Z,97525.38
2023-11-02T15:06:31.737Z,97523.81
2023-11-02T15:09:09.876Z,97539.25
2023-11-02T15:11:41.133Z,97547.41
2023-11-02T15:14:12.272Z,97540.31
2023-11-02T15:16:40.227Z,97513.53
2023-11-02T15:19:08.199Z,97519.41
2023-11-02T15:21:38.619Z,97533.06
2023-11-02T15:24:08.380Z,97530.25
2023-11-02T15:26:36.643Z,97512.53
2023-11-02T15:29:05.543Z,97505.00
2023-11-02T15:31:35.154Z,97499.53
2023-11-02T15:34:04.771Z,97496.72
2023-11-02T15:36:38.150Z,97491.22
2023-11-02T15:39:11.485Z,97473.09
2023-11-02T15:41:41.437Z,97453.03
2023-11-02T15:44:10.280Z,97458.25
2023-11-02T15:46:44.007Z,97449.78
2023-11-02T15:49:13.169Z,97441.03
2023-11-02T15:51:45.511Z,97444.91
2023-11-02T15:54:17.816Z,97448.31
2023-11-02T15:56:47.340Z,97452.81
2023-11-02T15:59:16.058Z,97462.31
2023-11-02T16:01:45.320Z,97465.84
2023-11-02T16:04:13.805Z,97439.88
2023-11-02T16:06:42.524Z,97449.25
2023-11-02T16:09:10.620Z,97467.53
2023-11-02T16:11:45.799Z,97462.22
2023-11-02T16:14:16.192Z,97456.56
2023-11-02T16:16:46.384Z,97461.00
2023-11-02T16:19:15.057Z,97481.75
2023-11-02T16:21:44.797Z,97472.81
2023-11-02T16:24:16.182Z,97471.63
2023-11-02T16:26:46.273Z,97478.94
2023-11-02T16:29:14.586Z,97497.44
2023-11-02T16:31:42.946Z,97512.03
2023-11-02T16:34:23.172Z,97507.31
2023-11-02T16:36:56.089Z,97511.63
2023-11-02T16:39:25.358Z,97500.06
2023-11-02T16:41:56.055Z,97511.88
2023-11-02T16:44:28.688Z,97510.03
2023-11-02T16:47:00.243Z,97515.53
2023-11-02T16:49:30.257Z,97508.44
2023-11-02T16:51:58.594Z,97508.84
2023-11-02T16:54:26.655Z,97518.19
2023-11-02T16:56:55.226Z,97509.22
2023-11-02T16:59:23.152Z,97491.56
2023-11-02T17:01:56.087Z,97485.06
2023-11-02T17:04:24.120Z,97484.28
2023-11-02T17:06:56.095Z,97478.19
2023-11-02T17:09:24.797Z,97473.94
2023-11-02T17:11:52.687Z,97472.09
2023-11-02T17:14:20.644Z,97475.75
2023-11-02T17:16:49.072Z,97491.59
2023-11-02T17:19:17.499Z,97494.44
2023-11-02T17:21:46.950Z,97497.69
2023-11-02T17:24:16.460Z,97487.16
2023-11-02T17:26:45.528Z,97491.63
2023-11-02T17:29:13.614Z,97507.47
2023-11-02T17:31:45.916Z,97509.06
2023-11-02T17:34:14.233Z,97507.88
2023-11-02T17:36:43.494Z,97514.75
2023-11-02T17:39:13.812Z,97516.59
2023-11-02T17:41:44.596Z,97529.56
2023-11-02T17:44:13.583Z,97537.50
2023-11-02T17:46:41.644Z,97525.53
2023-11-02T17:49:10.474Z,97534.66
2023-11-02T17:51:42.274Z,97536.88
2023-11-02T17:54:11.790Z,97536.88
2023-11-02T17:56:44.727Z,97535.88
2023-11-02T17:59:15.819Z,97538.09
2023-11-02T18:01:46.015Z,97534.63
2023-11-02T18:04:16.207Z,97545.78
2023-11-02T18:06:44.640Z,97541.91
2023-11-02T18:09:12.647Z,97545.97
2023-11-02T18:11:40.701Z,97542.91
2023-11-02T18:14:11.313Z,97538.28
2023-11-02T18:16:39.489Z,97526.06
2023-11-02T18:19:07.790Z,97527.03
2023-11-02T18:21:39.397Z,97522.94
2023-11-02T18:24:09.899Z,97529.84
2023-11-02T18:26:37.963Z,97522.72
2023-11-02T18:29:10.504Z,97539.56
2023-11-02T18:31:40.110Z,97531.28
2023-11-02T18:34:08.336Z,97537.97
2023-11-02T18:36:40.609Z,97541.41
2023-11-02T18:39:10.521Z,97533.13
2023-11-02T18:41:38.733Z,97547.19
2023-11-02T18:44:07.212Z,97538.66
2023-11-02T18:46:35.559Z,97525.66
2023-11-02T18:49:07.250Z,97527.44
2023-11-02T18:51:43.857Z,97515.34
2023-11-02T18:54:13.572Z,97511.66
2023-11-02T18:56:48.296Z,97512.09
2023-11-02T18:59:16.276Z,97508.03
2023-11-02T19:01:44.120Z,97528.13
2023-11-02T19:04:13.578Z,97521.47
2023-11-02T19:06:41.663Z,97507.44
2023-11-02T19:09:10.583Z,97500.34
2023-11-02T19:11:43.926Z,97507.25
2023-11-02T19:14:14.643Z,97509.06
2023-11-02T19:16:42.648Z,97509.06
2023-11-02T19:19:14.536Z,97521.06
2023-11-02T19:21:43.776Z,97506.25
2023-11-02T19:24:12.761Z,97486.97
2023-11-02T19:26:41.937Z,97498.75
2023-11-02T19:29:10.058Z,97511.09
2023-11-02T19:31:45.286Z,97514.78
2023-11-02T19:34:15.216Z,97524.31
2023-11-02T19:36:45.594Z,97532.44
2023-11-02T19:39:14.336Z,97545.81
2023-11-02T19:41:45.140Z,97549.47
2023-11-02T19:44:14.392Z,97548.06
2023-11-02T19:46:45.133Z,97538.31
2023-11-02T19:49:15.314Z,97546.03
2023-11-02T19:51:44.724Z,97565.69
2023-11-02T19:54:14.947Z,97587.81
2023-11-02T19:56:45.195Z,97580.56
2023-11-02T19:59:14.024Z,97589.47
2023-11-02T20:01:44.486Z,97574.03
2023-11-02T20:04:14.012Z,97572.81
2023-11-02T20:06:42.482Z,97579.94
2023-11-02T20:09:15.037Z,97566.94
2023-11-02T20:11:45.437Z,97574.22
2023-11-02T20:14:14.559Z,97564.88
2023-11-02T20:16:48.025Z,97580.91
2023-11-02T20:19:17.487Z,97578.63
2023-11-02T20:21:45.766Z,97591.03
2023-11-02T20:24:13.788Z,97595.84
2023-11-02T20:26:43.942Z,97589.47
2023-11-02T20:29:11.922Z,97593.34
2023-11-02T20:31:40.773Z,97587.22
2023-11-02T20:34:08.720Z,97595.88
2023-11-02T20:36:38.234Z,97601.19
2023-11-02T20:39:06.402Z,97605.38
2023-11-02T20:41:36.090Z,97610.56
2023-11-02T20:44:04.519Z,97624.16
2023-11-02T20:46:32.720Z,97611.41
2023-11-02T20:49:00.821Z,97603.25
2023-11-02T20:51:31.461Z,97593.13
2023-11-02T20:54:01.079Z,97590.44
2023-11-02T20:56:29.264Z,97576.41
2023-11-02T20:58:57.204Z,97570.56
2023-11-02T21:01:25.178Z,97555.56
2023-11-02T21:03:53.221Z,97551.31
2023-11-02T21:06:29.498Z,97540.81
2023-11-02T21:08:57.868Z,97535.53
2023-11-02T21:11:27.125Z,97542.44
2023-11-02T21:13:55.080Z,97542.41
2023-11-02T21:16:23.900Z,97548.44
2023-11-02T21:18:52.499Z,97549.63
2023-11-02T21:21:22.845Z,97538.31
2023-11-02T21:23:50.797Z,97557.53
2023-11-02T21:26:21.098Z,97571.31
2023-11-02T21:28:50.548Z,97571.44
2023-11-02T21:31:18.394Z,97572.81
2023-11-02T21:33:46.450Z,97572.63
2023-11-02T21:36:14.486Z,97581.31
2023-11-02T21:38:42.540Z,97586.91
2023-11-02T21:41:11.138Z,97575.13
2023-11-02T21:43:39.722Z,97580.31
2023-11-02T21:46:10.356Z,97580.03
2023-11-02T21:48:41.189Z,97579.56
2023-11-02T21:51:11.458Z,97591.28
2023-11-02T21:53:39.725Z,97601.97
2023-11-02T21:56:08.915Z,97608.22
2023-11-02T21:58:36.958Z,97605.19
2023-11-02T22:01:05.356Z,97606.81
2023-11-02T22:03:35.044Z,97610.75
2023-11-02T22:06:02.987Z,97619.41
2023-11-02T22:08:30.940Z,97608.81
2023-11-02T22:10:58.860Z,97619.00
2023-11-02T22:13:26.967Z,97621.50
2023-11-02T22:15:55.013Z,97618.53
2023-11-02T22:18:23.090Z,97622.13
2023-11-02T22:20:52.480Z,97614.97
2023-11-02T22:23:20.399Z,97599.16
2023-11-02T22:25:50.889Z,97593.22
2023-11-02T22:28:18.746Z,97599.06
2023-11-02T22:30:47.048Z,97611.50
2023-11-02T22:33:15.128Z,97608.22
2023-11-02T22:35:43.487Z,97609.25
2023-11-02T22:38:15.785Z,97599.91
2023-11-02T22:40:44.033Z,97611.59
2023-11-02T22:43:12.736Z,97612.75
2023-11-02T22:45:40.714Z,97600.91
2023-11-02T22:48:08.860Z,97600.50
2023-11-02T22:50:37.107Z,97587.34
2023-11-02T22:53:05.116Z,97584.09
2023-11-02T22:55:34.401Z,97586.75
2023-11-02T22:58:02.372Z,97601.75
2023-11-02T23:00:34.061Z,97596.78
2023-11-02T23:03:02.641Z,97585.56
2023-11-02T23:05:30.974Z,97577.19
2023-11-02T23:07:59.765Z,97577.19
2023-11-02T23:10:29.982Z,97584.00
2023-11-02T23:12:59.712Z,97594.88
2023-11-02T23:15:30.106Z,97593.63
2023-11-02T23:17:58.110Z,97594.31
2023-11-02T23:20:26.281Z,97605.75
2023-11-02T23:22:54.579Z,97610.38
2023-11-02T23:25:23.225Z,97610.91
2023-11-02T23:27:51.504Z,97606.94
2023-11-02T23:30:21.411Z,97611.19
2023-11-02T23:32:50.785Z,97619.25
2023-11-02T23:35:18.966Z,97628.69
2023-11-02T23:37:47.383Z,97639.66
2023-11-02T23:40:16.921Z,97642.00
2023-11-02T23:42:46.109Z,97639.66
2023-11-02T23:45:14.654Z,97642.16
2023-11-02T23:47:44.107Z,97651.06
2023-11-02T23:50:12.522Z,97643.84
2023-11-02T23:52:42.566Z,97655.06
2023-11-02T23:55:11.179Z,97651.91
2023-11-02T23:57:39.625Z,97645.34
